createdAt,value
2022-08-09T00:00:00.857Z,4.40
2022-08-09T00:02:37.217Z,4.47
2022-08-09T00:06:19.507Z,5.15
2022-08-09T00:07:57.206Z,5.13
2022-08-09T00:10:28.529Z,5.25
2022-08-09T00:12:55.449Z,5.28
2022-08-09T00:15:26.371Z,5.65
2022-08-09T00:18:11.982Z,5.85
2022-08-09T00:20:49.882Z,5.32
2022-08-09T00:23:57.652Z,5.18
2022-08-09T00:26:11.142Z,5.50
2022-08-09T00:28:39.536Z,6.05
2022-08-09T00:31:30.517Z,5.65
2022-08-09T00:33:55.003Z,6.13
2022-08-09T00:36:27.258Z,5.32
2022-08-09T00:38:58.777Z,4.63
2022-08-09T00:44:10.305Z,3.90
2022-08-09T00:44:26.305Z,4.80
2022-08-09T00:47:04.828Z,4.72
2022-08-09T00:49:36.560Z,4.00
2022-08-09T00:52:15.993Z,3.33
2022-08-09T00:54:45.888Z,3.40
2022-08-09T00:57:13.735Z,3.67
2022-08-09T00:59:52.496Z,4.72
2022-08-09T01:02:22.530Z,5.88
2022-08-09T01:05:02.687Z,5.40
2022-08-09T01:08:00.838Z,5.07
2022-08-09T01:10:32.384Z,5.10
2022-08-09T01:13:18.254Z,5.53
2022-08-09T01:15:52.988Z,5.47
2022-08-09T01:18:30.339Z,4.85
2022-08-09T01:21:17.021Z,5.20
2022-08-09T01:24:10.119Z,6.55
2022-08-09T01:26:42.887Z,7.78
2022-08-09T01:29:15.886Z,6.65
2022-08-09T01:32:31.809Z,7.82
2022-08-09T01:34:35.669Z,5.82
2022-08-09T01:37:08.826Z,6.35
2022-08-09T01:39:38.215Z,6.40
2022-08-09T01:42:08.104Z,6.50
2022-08-09T01:44:41.283Z,6.38
2022-08-09T01:47:11.835Z,6.05
2022-08-09T01:49:41.157Z,7.78
2022-08-09T01:52:17.964Z,7.40
2022-08-09T01:54:48.600Z,7.60
2022-08-09T01:57:40.365Z,7.32
2022-08-09T02:00:34.845Z,7.75
2022-08-09T02:03:01.650Z,7.70
2022-08-09T02:05:37.654Z,7.18
2022-08-09T02:08:39.693Z,7.72
2022-08-09T02:11:17.508Z,7.60
2022-08-09T02:14:02.114Z,7.07
2022-08-09T02:16:38.987Z,7.05
2022-08-09T02:19:23.205Z,6.78
2022-08-09T02:21:55.968Z,6.10
2022-08-09T02:24:29.698Z,5.40
2022-08-09T02:27:00.934Z,5.50
2022-08-09T02:29:32.617Z,6.05
2022-08-09T02:32:01.908Z,5.80
2022-08-09T02:34:40.936Z,5.25
2022-08-09T02:37:14.817Z,6.20
2022-08-09T02:39:54.966Z,6.57
2022-08-09T02:42:33.569Z,6.18
2022-08-09T02:45:08.453Z,5.88
2022-08-09T02:47:57.299Z,5.40
2022-08-09T02:50:29.391Z,4.70
2022-08-09T02:53:03.645Z,4.30
2022-08-09T02:55:46.848Z,4.43
2022-08-09T02:58:35.312Z,6.07
2022-08-09T03:01:10.892Z,5.20
2022-08-09T03:04:17.742Z,4.97
2022-08-09T03:06:31.048Z,5.65
2022-08-09T03:09:01.766Z,6.03
2022-08-09T03:12:04.178Z,4.85
2022-08-09T03:14:18.239Z,4.00
2022-08-09T03:16:48.203Z,4.07
2022-08-09T03:19:59.520Z,5.30
2022-08-09T03:22:12.484Z,4.30
2022-08-09T03:25:03.340Z,5.30
2022-08-09T03:27:45.309Z,4.68
2022-08-09T03:30:29.166Z,5.68
2022-08-09T03:33:17.813Z,5.55
2022-08-09T03:36:13.061Z,4.57
2022-08-09T03:38:42.012Z,3.60
2022-08-09T03:41:15.630Z,3.65
2022-08-09T03:44:02.906Z,3.53
2022-08-09T03:46:31.753Z,3.90
2022-08-09T03:49:03.932Z,4.13
2022-08-09T03:51:55.107Z,4.60
2022-08-09T03:54:29.528Z,4.55
2022-08-09T03:56:59.419Z,5.13
2022-08-09T03:59:52.837Z,5.55
2022-08-09T04:02:14.564Z,5.20
2022-08-09T04:04:45.648Z,4.40
2022-08-09T04:07:14.826Z,4.60
2022-08-09T04:09:50.078Z,5.18
2022-08-09T04:12:44.444Z,5.22
2022-08-09T04:15:29.703Z,6.10
2022-08-09T04:18:00.303Z,6.47
2022-08-09T04:20:28.175Z,7.65
2022-08-09T04:22:59.260Z,8.38
2022-08-09T04:25:26.146Z,10.40
2022-08-09T04:27:53.123Z,9.43
2022-08-09T04:30:23.356Z,10.50
2022-08-09T04:32:54.139Z,9.23
2022-08-09T04:35:21.869Z,9.07
2022-08-09T04:37:49.993Z,8.90
2022-08-09T04:40:28.448Z,8.55
2022-08-09T04:43:03.035Z,7.45
2022-08-09T04:45:36.083Z,6.70
2022-08-09T04:48:17.572Z,6.60
2022-08-09T04:50:45.022Z,7.15
2022-08-09T04:53:13.937Z,6.00
2022-08-09T04:55:58.623Z,7.00
2022-08-09T04:58:27.721Z,6.68
2022-08-09T05:00:55.579Z,7.20
2022-08-09T05:03:42.706Z,7.10
2022-08-09T05:06:27.359Z,7.70
2022-08-09T05:09:00.584Z,7.50
2022-08-09T05:11:32.205Z,8.18
2022-08-09T05:14:05.867Z,8.63
2022-08-09T05:16:57.955Z,9.65
2022-08-09T05:19:24.488Z,9.70
2022-08-09T05:21:55.223Z,13.25
2022-08-09T05:24:24.165Z,12.32
2022-08-09T05:26:52.402Z,12.13
2022-08-09T05:29:23.843Z,11.63
2022-08-09T05:31:56.622Z,12.05
2022-08-09T05:34:31.650Z,13.55
2022-08-09T05:37:07.029Z,13.63
2022-08-09T05:39:43.750Z,12.98
2022-08-09T05:42:16.992Z,18.40
2022-08-09T05:44:50.951Z,13.73
2022-08-09T05:47:19.384Z,14.35
2022-08-09T05:50:35.050Z,12.17
2022-08-09T05:52:36.226Z,12.00
2022-08-09T05:55:07.343Z,11.77
2022-08-09T05:57:50.735Z,11.30
2022-08-09T06:00:23.809Z,10.27
2022-08-09T06:02:54.685Z,11.70
2022-08-09T06:05:31.244Z,10.77
2022-08-09T06:08:19.019Z,11.48
2022-08-09T06:10:50.975Z,10.73
2022-08-09T06:13:20.549Z,9.30
2022-08-09T06:15:51.814Z,9.02
2022-08-09T06:18:25.082Z,8.40
2022-08-09T06:20:59.757Z,7.82
2022-08-09T06:23:58.416Z,8.40
2022-08-09T06:26:20.251Z,7.03
2022-08-09T06:28:59.416Z,7.45
2022-08-09T06:31:31.273Z,8.13
2022-08-09T06:33:58.812Z,6.88
2022-08-09T06:36:27.149Z,7.25
2022-08-09T06:38:57.607Z,6.07
2022-08-09T06:42:08.023Z,5.25
2022-08-09T06:44:18.325Z,4.07
2022-08-09T06:46:45.585Z,4.20
2022-08-09T06:49:16.012Z,4.18
2022-08-09T06:51:43.042Z,3.80
2022-08-09T06:54:14.960Z,3.60
2022-08-09T06:56:45.622Z,3.88
2022-08-09T07:00:54.358Z,3.60
2022-08-09T07:02:04.636Z,3.45
2022-08-09T07:04:32.307Z,3.60
2022-08-09T07:07:00.518Z,3.55
2022-08-09T07:09:55.522Z,3.22
2022-08-09T07:12:37.915Z,3.10
2022-08-09T07:16:36.260Z,3.10
2022-08-09T07:17:56.115Z,3.70
2022-08-09T07:20:25.411Z,3.28
2022-08-09T07:22:54.337Z,3.30
2022-08-09T07:25:21.388Z,3.40
2022-08-09T07:27:53.426Z,3.33
2022-08-09T07:30:25.174Z,3.42
2022-08-09T07:32:53.263Z,3.33
2022-08-09T07:35:22.663Z,3.47
2022-08-09T07:37:50.571Z,3.28
2022-08-09T07:40:20.582Z,3.22
2022-08-09T07:42:59.043Z,4.10
2022-08-09T07:45:37.559Z,3.85
2022-08-09T07:48:08.012Z,4.07
2022-08-09T07:51:10.051Z,4.75
2022-08-09T07:54:04.270Z,3.80
2022-08-09T07:56:28.664Z,4.18
2022-08-09T07:58:59.457Z,4.13
2022-08-09T08:01:32.864Z,3.85
2022-08-09T08:04:00.292Z,4.93
2022-08-09T08:06:31.888Z,4.75
2022-08-09T08:09:04.427Z,5.18
2022-08-09T08:12:24.095Z,5.15
2022-08-09T08:14:21.180Z,6.18
2022-08-09T08:17:00.599Z,5.38
2022-08-09T08:19:34.140Z,5.47
2022-08-09T08:22:02.318Z,6.00
2022-08-09T08:24:35.333Z,5.57
2022-08-09T08:27:16.249Z,5.45
2022-08-09T08:29:48.566Z,5.85
2022-08-09T08:32:18.916Z,5.85
2022-08-09T08:34:58.564Z,6.35
2022-08-09T08:37:40.804Z,6.07
2022-08-09T08:40:09.699Z,5.75
2022-08-09T08:42:38.425Z,5.80
2022-08-09T08:45:13.306Z,5.18
2022-08-09T08:47:42.849Z,6.20
2022-08-09T08:50:18.050Z,6.95
2022-08-09T08:52:58.295Z,6.32
2022-08-09T08:55:27.963Z,6.53
2022-08-09T08:57:57.595Z,6.75
2022-08-09T09:00:30.383Z,6.68
2022-08-09T09:03:11.902Z,7.13
2022-08-09T09:05:59.763Z,6.57
2022-08-09T09:08:40.318Z,7.22
2022-08-09T09:11:17.393Z,6.70
2022-08-09T09:13:57.556Z,6.75
2022-08-09T09:16:33.759Z,7.00
2022-08-09T09:19:37.364Z,6.95
2022-08-09T09:21:59.062Z,7.22
2022-08-09T09:24:29.811Z,6.78
2022-08-09T09:26:58.483Z,6.95
2022-08-09T09:30:11.589Z,6.80
2022-08-09T09:32:32.326Z,7.28
2022-08-09T09:35:10.872Z,7.22
2022-08-09T09:37:45.830Z,7.45
2022-08-09T09:40:13.151Z,8.00
2022-08-09T09:42:43.039Z,7.43
2022-08-09T09:45:14.156Z,7.65
2022-08-09T09:47:56.431Z,8.52
2022-08-09T09:50:50.691Z,8.77
2022-08-09T09:53:21.489Z,9.88
2022-08-09T09:56:04.526Z,9.40
2022-08-09T09:58:49.199Z,9.75
2022-08-09T10:01:31.318Z,10.50
2022-08-09T10:04:15.773Z,10.30
2022-08-09T10:06:47.242Z,10.77
2022-08-09T10:09:22.073Z,11.63
2022-08-09T10:12:14.163Z,10.55
2022-08-09T10:14:49.991Z,11.00
2022-08-09T10:17:51.439Z,12.07
2022-08-09T10:20:32.241Z,11.82
2022-08-09T10:23:22.815Z,12.63
2022-08-09T10:26:07.030Z,12.25
2022-08-09T10:28:40.426Z,12.13
2022-08-09T10:32:28.302Z,11.63
2022-08-09T10:34:11.467Z,12.35
2022-08-09T10:36:43.179Z,12.15
2022-08-09T10:39:14.157Z,12.35
2022-08-09T10:41:48.017Z,11.80
2022-08-09T10:44:25.470Z,12.15
2022-08-09T10:48:16.649Z,12.63
2022-08-09T10:50:58.054Z,12.20
2022-08-09T10:53:46.972Z,13.15
2022-08-09T10:56:23.959Z,12.77
2022-08-09T10:58:53.999Z,12.25
2022-08-09T11:03:13.857Z,12.95
2022-08-09T11:04:29.874Z,12.45
2022-08-09T11:06:57.833Z,13.25
2022-08-09T11:09:38.631Z,12.40
2022-08-09T11:12:30.230Z,12.20
2022-08-09T11:15:01.394Z,12.30
2022-08-09T11:17:31.326Z,12.65
2022-08-09T11:20:23.155Z,12.40
2022-08-09T11:22:57.102Z,12.55
2022-08-09T11:25:45.374Z,12.52
2022-08-09T11:28:56.201Z,12.52
2022-08-09T11:31:49.580Z,12.95
2022-08-09T11:34:23.313Z,12.40
2022-08-09T11:36:51.931Z,12.80
2022-08-09T11:39:18.962Z,12.65
2022-08-09T11:41:46.961Z,12.25
2022-08-09T11:44:15.841Z,12.18
2022-08-09T11:46:57.796Z,12.02
2022-08-09T11:50:54.250Z,12.23
2022-08-09T11:53:16.474Z,12.60
2022-08-09T11:55:52.772Z,12.27
2022-08-09T11:58:33.005Z,12.55
2022-08-09T12:01:03.383Z,12.60
2022-08-09T12:03:56.803Z,12.52
2022-08-09T12:06:32.046Z,12.23
2022-08-09T12:09:01.326Z,12.25
2022-08-09T12:11:28.722Z,12.45
2022-08-09T12:14:08.447Z,11.32
2022-08-09T12:16:41.623Z,12.00
2022-08-09T12:19:13.121Z,12.82
2022-08-09T12:21:50.874Z,12.70
2022-08-09T12:24:24.371Z,12.40
2022-08-09T12:29:10.128Z,11.90
2022-08-09T12:30:01.744Z,12.13
2022-08-09T12:32:43.139Z,11.98
2022-08-09T12:35:13.317Z,11.80
2022-08-09T12:37:51.665Z,12.40
2022-08-09T12:40:23.385Z,12.20
2022-08-09T12:42:52.763Z,11.88
2022-08-09T12:45:34.238Z,11.20
2022-08-09T12:48:10.869Z,11.93
2022-08-09T12:50:48.108Z,11.63
2022-08-09T12:53:40.704Z,11.88
2022-08-09T12:56:42.933Z,12.10
2022-08-09T12:59:57.497Z,11.93
2022-08-09T13:02:15.217Z,11.63
2022-08-09T13:04:58.918Z,11.13
2022-08-09T13:07:50.129Z,11.80
2022-08-09T13:10:15.660Z,11.18
2022-08-09T13:13:09.489Z,11.80
2022-08-09T13:15:36.003Z,12.25
2022-08-09T13:18:09.311Z,11.43
2022-08-09T13:22:33.658Z,11.07
2022-08-09T13:24:44.348Z,11.95
2022-08-09T13:26:38.981Z,11.48
2022-08-09T13:29:13.580Z,11.20
2022-08-09T13:32:19.085Z,11.20
2022-08-09T13:34:53.457Z,11.30
2022-08-09T13:37:24.538Z,11.40
2022-08-09T13:41:50.638Z,11.60
2022-08-09T13:42:56.614Z,11.40
2022-08-09T13:45:31.944Z,11.02
2022-08-09T13:48:10.822Z,11.05
2022-08-09T13:50:37.879Z,11.25
2022-08-09T13:53:05.430Z,11.05
2022-08-09T13:55:34.874Z,10.70
2022-08-09T13:58:04.916Z,10.73
2022-08-09T14:00:36.597Z,10.90
2022-08-09T14:04:03.809Z,10.85
2022-08-09T14:06:02.750Z,11.02
2022-08-09T14:08:31.487Z,10.60
2022-08-09T14:10:59.625Z,11.10
2022-08-09T14:14:22.485Z,10.80
2022-08-09T14:16:28.268Z,11.02
2022-08-09T14:18:57.198Z,10.98
2022-08-09T14:21:29.007Z,11.05
2022-08-09T14:23:57.481Z,10.85
2022-08-09T14:26:32.639Z,11.07
2022-08-09T14:29:08.342Z,11.07
2022-08-09T14:31:54.545Z,10.65
2022-08-09T14:34:31.423Z,10.10
2022-08-09T14:37:08.083Z,10.77
2022-08-09T14:39:48.011Z,10.77
2022-08-09T14:42:30.502Z,10.98
2022-08-09T14:46:39.033Z,10.88
2022-08-09T14:47:58.685Z,9.85
2022-08-09T14:50:28.761Z,10.63
2022-08-09T14:52:55.652Z,10.43
2022-08-09T14:55:22.518Z,10.45
2022-08-09T14:57:49.761Z,10.35
2022-08-09T15:00:17.532Z,10.60
2022-08-09T15:02:47.760Z,10.85
2022-08-09T15:05:19.266Z,10.80
2022-08-09T15:07:55.964Z,10.50
2022-08-09T15:10:28.533Z,10.52
2022-08-09T15:12:56.528Z,10.52
2022-08-09T15:15:24.549Z,10.88
2022-08-09T15:17:56.504Z,10.82
2022-08-09T15:21:55.138Z,10.80
2022-08-09T15:24:09.315Z,10.30
2022-08-09T15:25:59.933Z,9.95
2022-08-09T15:28:28.517Z,10.50
2022-08-09T15:31:13.354Z,10.77
2022-08-09T15:34:32.165Z,10.48
2022-08-09T15:36:31.927Z,10.15
2022-08-09T15:39:00.077Z,10.20
2022-08-09T15:41:32.225Z,9.68
2022-08-09T15:44:02.076Z,10.15
2022-08-09T15:46:34.311Z,10.60
2022-08-09T15:49:21.687Z,9.70
2022-08-09T15:52:04.405Z,10.40
2022-08-09T15:54:46.427Z,9.88
2022-08-09T15:57:35.308Z,9.80
2022-08-09T16:00:24.654Z,9.90
2022-08-09T16:02:54.873Z,10.05
2022-08-09T16:05:26.587Z,10.00
2022-08-09T16:08:15.262Z,10.13
2022-08-09T16:11:02.119Z,10.05
2022-08-09T16:14:02.930Z,9.50
2022-08-09T16:16:20.204Z,9.27
2022-08-09T16:18:53.294Z,9.43
2022-08-09T16:21:26.056Z,10.35
2022-08-09T16:23:58.282Z,10.02
2022-08-09T16:26:33.677Z,9.63
2022-08-09T16:29:10.579Z,9.57
2022-08-09T16:32:19.669Z,9.77
2022-08-09T16:34:53.371Z,9.73
2022-08-09T16:37:20.179Z,10.48
2022-08-09T16:40:11.777Z,10.07
2022-08-09T16:42:44.874Z,9.88
2022-08-09T16:45:14.967Z,10.38
2022-08-09T16:48:50.610Z,10.10
2022-08-09T16:50:33.740Z,10.90
2022-08-09T16:53:02.725Z,10.25
2022-08-09T16:55:58.513Z,10.30
2022-08-09T16:58:18.521Z,10.48
2022-08-09T17:00:46.554Z,10.30
2022-08-09T17:03:22.304Z,10.70
2022-08-09T17:06:08.997Z,10.52
2022-08-09T17:09:01.616Z,9.88
2022-08-09T17:11:40.723Z,9.52
2022-08-09T17:14:26.139Z,9.40
2022-08-09T17:16:59.818Z,9.18
2022-08-09T17:20:05.980Z,9.80
2022-08-09T17:22:23.909Z,10.40
2022-08-09T17:24:55.836Z,9.20
2022-08-09T17:27:32.610Z,9.20
2022-08-09T17:29:59.697Z,9.50
2022-08-09T17:32:38.036Z,9.15
2022-08-09T17:35:11.227Z,9.35
2022-08-09T17:38:11.770Z,9.30
2022-08-09T17:40:32.644Z,9.98
2022-08-09T17:43:10.921Z,9.50
2022-08-09T17:46:03.288Z,10.02
2022-08-09T17:48:39.723Z,9.43
2022-08-09T17:51:17.361Z,9.50
2022-08-09T17:53:51.453Z,9.50
2022-08-09T17:56:21.402Z,9.73
2022-08-09T17:58:48.449Z,9.00
2022-08-09T18:01:22.459Z,9.40
2022-08-09T18:03:54.699Z,9.10
2022-08-09T18:06:31.756Z,9.40
2022-08-09T18:09:03.451Z,10.10
2022-08-09T18:12:04.801Z,9.32
2022-08-09T18:14:20.661Z,10.02
2022-08-09T18:16:49.327Z,8.85
2022-08-09T18:20:57.102Z,9.60
2022-08-09T18:22:05.757Z,9.38
2022-08-09T18:24:40.561Z,9.60
2022-08-09T18:27:09.818Z,9.43
2022-08-09T18:30:39.882Z,9.32
2022-08-09T18:32:29.058Z,10.10
2022-08-09T18:34:57.062Z,9.95
2022-08-09T18:37:47.294Z,8.90
2022-08-09T18:40:11.305Z,10.57
2022-08-09T18:42:39.444Z,10.18
2022-08-09T18:45:11.191Z,10.43
2022-08-09T18:47:58.571Z,10.57
2022-08-09T18:50:25.669Z,10.18
2022-08-09T18:53:00.626Z,10.45
2022-08-09T18:55:29.390Z,10.43
2022-08-09T18:58:19.928Z,10.18
2022-08-09T19:00:59.547Z,11.18
2022-08-09T19:03:27.478Z,10.13
2022-08-09T19:06:04.169Z,9.85
2022-08-09T19:08:32.569Z,11.13
2022-08-09T19:10:59.573Z,11.75
2022-08-09T19:13:49.851Z,11.90
2022-08-09T19:16:13.443Z,11.52
2022-08-09T19:18:48.608Z,12.07
2022-08-09T19:21:16.560Z,12.20
2022-08-09T19:24:33.356Z,11.80
2022-08-09T19:26:35.698Z,10.75
2022-08-09T19:29:09.685Z,10.32
2022-08-09T19:31:45.752Z,9.60
2022-08-09T19:34:21.482Z,9.55
2022-08-09T19:36:54.468Z,8.57
2022-08-09T19:39:43.478Z,7.88
2022-08-09T19:42:14.734Z,7.30
2022-08-09T19:44:50.971Z,7.47
2022-08-09T19:47:23.653Z,7.40
2022-08-09T19:50:07.771Z,7.22
2022-08-09T19:52:51.715Z,6.68
2022-08-09T19:55:30.596Z,6.40
2022-08-09T19:58:06.797Z,6.03
2022-08-09T20:00:45.462Z,5.60
2022-08-09T20:04:16.899Z,4.95
2022-08-09T20:06:03.414Z,4.80
2022-08-09T20:08:34.899Z,5.05
2022-08-09T20:11:02.724Z,4.50
2022-08-09T20:13:32.421Z,4.18
2022-08-09T20:16:37.975Z,4.00
2022-08-09T20:19:42.734Z,4.20
2022-08-09T20:21:56.208Z,4.40
2022-08-09T20:24:32.095Z,4.80
2022-08-09T20:27:05.618Z,5.20
2022-08-09T20:29:37.627Z,4.70
2022-08-09T20:32:29.261Z,5.28
2022-08-09T20:34:59.661Z,4.90
2022-08-09T20:38:18.801Z,4.70
2022-08-09T20:40:26.523Z,5.20
2022-08-09T20:43:00.201Z,4.93
2022-08-09T20:45:59.267Z,5.40
2022-08-09T20:48:29.059Z,5.10
2022-08-09T20:50:58.875Z,5.68
2022-08-09T20:53:35.330Z,5.43
2022-08-09T20:56:20.311Z,5.38
2022-08-09T20:58:47.788Z,5.55
2022-08-09T21:01:34.842Z,6.15
2022-08-09T21:04:08.321Z,5.43
2022-08-09T21:06:52.994Z,5.28
2022-08-09T21:09:32.907Z,5.10
2022-08-09T21:14:40.658Z,6.30
2022-08-09T21:18:22.879Z,6.32
2022-08-09T21:20:18.157Z,7.07
2022-08-09T21:22:46.938Z,6.72
2022-08-09T21:25:38.063Z,7.57
2022-08-09T21:28:07.321Z,7.40
2022-08-09T21:30:40.557Z,6.75
2022-08-09T21:33:08.624Z,7.30
2022-08-09T21:35:39.326Z,6.50
2022-08-09T21:38:09.191Z,5.82
2022-08-09T21:40:37.117Z,5.68
2022-08-09T21:43:06.291Z,5.80
2022-08-09T21:45:38.949Z,6.50
2022-08-09T21:48:07.285Z,6.88
2022-08-09T21:50:38.499Z,7.53
2022-08-09T21:53:19.900Z,7.13
2022-08-09T21:55:54.712Z,7.65
2022-08-09T21:58:21.520Z,7.30
2022-08-09T22:00:58.252Z,6.72
2022-08-09T22:03:25.553Z,7.10
2022-08-09T22:05:54.216Z,7.40
2022-08-09T22:08:24.601Z,7.50
2022-08-09T22:11:00.196Z,7.80
2022-08-09T22:13:43.288Z,8.15
2022-08-09T22:16:11.883Z,8.45
2022-08-09T22:18:44.154Z,8.25
2022-08-09T22:21:44.646Z,8.27
2022-08-09T22:24:17.025Z,7.50
2022-08-09T22:26:51.590Z,7.93
2022-08-09T22:29:20.748Z,7.30
2022-08-09T22:31:56.832Z,7.35
2022-08-09T22:34:28.427Z,8.00
2022-08-09T22:36:57.096Z,8.65
2022-08-09T22:39:56.201Z,8.52
2022-08-09T22:42:21.309Z,8.43
2022-08-09T22:45:00.300Z,8.55
2022-08-09T22:48:10.863Z,8.18
2022-08-09T22:50:26.773Z,8.88
2022-08-09T22:52:54.863Z,9.52
2022-08-09T22:55:25.487Z,10.07
2022-08-09T22:58:00.684Z,9.55
2022-08-09T23:00:31.802Z,10.60
2022-08-09T23:02:58.639Z,9.65
2022-08-09T23:05:25.774Z,10.93
2022-08-09T23:08:27.526Z,11.55
2022-08-09T23:10:57.015Z,10.23
2022-08-09T23:13:23.897Z,10.35
2022-08-09T23:16:03.030Z,10.55
2022-08-09T23:18:31.163Z,11.13
2022-08-09T23:20:57.972Z,10.60
2022-08-09T23:23:24.791Z,11.25
2022-08-09T23:25:51.702Z,11.02
2022-08-09T23:28:18.528Z,10.88
2022-08-09T23:30:51.338Z,11.55
2022-08-09T23:33:22.998Z,11.38
2022-08-09T23:36:06.193Z,11.82
2022-08-09T23:38:35.915Z,11.90
2022-08-09T23:41:27.457Z,12.18
2022-08-09T23:43:57.169Z,12.65
2022-08-09T23:46:23.975Z,12.68
2022-08-09T23:48:50.791Z,12.63
2022-08-09T23:51:17.709Z,13.33
2022-08-09T23:53:44.520Z,13.70
2022-08-09T23:56:11.399Z,13.68
2022-08-09T23:58:38.253Z,13.07
